Archer City, TX (76351)

11:58 AM CDT on July 24, 2014 (GMT -0500)
Parker Rd (KTXWICHI14) Elev 1030 ft | 33.80 °N, 98.54 °W | Change Station
Active Advisory: Heat Advisory

Current weather conditions updated 2 minutes ago

Clear
Clear
93.9 °F
Feels Like 105 °F
N
10.4
Wind Variable Wind from SE

Today is forecast to be nearly the same temperature as yesterday.

Today
High -- | Low -- °F
--% Chance of Precip.
Yesterday
High -- | Low -- °F
Precip. -- in
6:41 AM 8:40 PM
Waning Crescent, 5% visible
Pressure 30.08 in
Visibility 10.0 miles
Clouds Clear
Heat Index 105 °F
Dew Point 74 °F
Humidity 53%
Rainfall 0.00 in
Snow Depth Not available.
UV 9 out of 12
Pollen 4.80 out of 12
Air Quality Not available.
Flu Activity Not available.
METAR KCWC 241635Z AUTO 14003KT 10SM CLR 31/20 A3008 RMK AO2 T03100196

More Conditions Fewer Conditions

Pressure 30.08 in
Visibility 10.0 miles
Clouds Clear
Heat Index 105 °F
Dew Point 74 °F
Humidity 53%
Rainfall 0.00 in
Snow Depth Not available.
UV 9 out of 12
Pollen 4.80 out of 12
Air Quality Not available.
Flu Activity Not available.
METAR KCWC 241635Z AUTO 14003KT 10SM CLR 31/20 A3008 RMK AO2 T03100196

More Conditions Fewer Conditions

10-Day Weather Forecast

Almanac

Astronomy

Jul. 24, 2014 Rise Set
Actual Time 6:41 AM CDT 8:40 PM CDT
Civil Twilight 6:13 AM CDT 9:08 PM CDT
Nautical Twilight 5:39 AM CDT 9:41 PM CDT
Astronomical Twilight 5:03 AM CDT 10:17 PM CDT
Moon 4:49 AM CDT 6:58 PM CDT
Length of Visible Light 14h 54m
Length of Day
13h 59m
Tomorrow will be 1m 20s shorter.
Waning Crescent, 5% of the Moon is Illuminated
Today
Waning Crescent
Jul 26
New
Aug 3
First Quarter
Aug 10
Full
Aug 17
Last Quarter

Today's Extremes

State Highs State Lows

Community

WunderPhotos

Upload Photos

1,737,062 photos uploaded!

Nearby

Snow Depth

Station Depth Elevation
No new snow has been reported.

Earthquake Activity

City Distance Mag. Time & Date
No recent earthquake activity has been reported nearby.
Minimum magnitude displayed is 2.5.

Coastal Water Temperatures

Place Temperature
No Stations Reporting

Nearby Weather Stations

Station Location Temp. Heat Index Dew Point Humidity Wind Precip. Elev Updated Type
Parker Rd, Wichita Falls, TX 93.9 °F 105 °F 74 °F 53% SE  at  10.4 mph - / hr 1030 ft 11:56 AM CDT Normal
Southwest Prky/Rhea Rd., WICHITA FALLS, TX 90.2 °F 97 °F 72 °F 55% ESE  at  4.4 mph 0.00 in / hr 984 ft 11:54 AM CDT Normal
WichitaFalls, TX 89.3 °F 97 °F 72 °F 57% SSE  at  0.0 mph - / hr 991 ft 11:54 AM CDT Normal
Wedgewood, Wichita Falls, TX 90.9 °F 97 °F 71 °F 52% SE  at  3.0 mph 0.00 in / hr 961 ft 11:56 AM CDT Normal
Hirschi, Wichita Falls, TX 90.1 °F 100 °F 75 °F 61% South  at  1.0 mph 0.00 in / hr 965 ft 11:54 AM CDT Normal

Show More Stations Show Fewer Stations